Time;durP1;ratioP1;P1;durP2;ratioP2;P2;SDS_P1;SDS_P2;PMS_P1;PMS_P2;Temp;Humidity;BMP_temperature;BMP_pressure;BME280_temperature;BME280_humidity;BME280_pressure;Samples;Min_cycle;Max_cycle;Signal;HPM_P1;HPM_P2
2023/10/21 00:00:18;;;;;;;18.20;14.50;;;8.00;99.90;;;;;;5067347;28;20201;-57
2023/10/21 00:02:44;;;;;;;19.83;13.37;;;7.90;99.90;;;;;;5070598;28;20796;-56
2023/10/21 00:05:09;;;;;;;23.17;14.87;;;7.90;99.90;;;;;;5071729;28;20272;-57
2023/10/21 00:07:35;;;;;;;21.13;14.67;;;7.80;99.90;;;;;;5068221;28;20215;-56
2023/10/21 00:10:01;;;;;;;26.63;16.23;;;7.80;99.90;;;;;;5068852;28;20210;-55
2023/10/21 00:12:26;;;;;;;24.87;16.33;;;7.80;99.90;;;;;;5072472;28;20234;-56
2023/10/21 00:14:52;;;;;;;21.27;14.77;;;7.80;99.90;;;;;;5073978;28;20201;-55
2023/10/21 00:17:17;;;;;;;20.27;15.40;;;8.00;99.90;;;;;;5071441;28;20194;-56
2023/10/21 00:19:43;;;;;;;23.97;15.20;;;7.90;99.90;;;;;;5073151;28;20213;-55
2023/10/21 00:22:10;;;;;;;24.30;14.93;;;7.90;99.90;;;;;;5074097;28;20646;-54
2023/10/21 00:24:35;;;;;;;21.57;14.30;;;8.00;99.90;;;;;;5053695;28;20725;-55
2023/10/21 00:27:01;;;;;;;21.97;15.03;;;8.00;99.90;;;;;;5048576;28;20202;-56
2023/10/21 00:29:27;;;;;;;22.10;14.80;;;8.10;99.90;;;;;;5070218;28;20256;-55
2023/10/21 00:31:52;;;;;;;19.83;14.73;;;8.10;99.90;;;;;;5067675;28;20687;-56
2023/10/21 00:34:19;;;;;;;20.67;15.43;;;8.20;99.90;;;;;;5046462;28;20347;-55
2023/10/21 00:36:44;;;;;;;22.47;15.43;;;8.00;99.90;;;;;;5068064;28;20224;-55
2023/10/21 00:39:13;;;;;;;22.83;15.17;;;8.00;99.90;;;;;;5068405;28;20670;-55
2023/10/21 00:41:39;;;;;;;21.60;15.43;;;7.80;99.90;;;;;;5064278;28;20194;-56
2023/10/21 00:44:05;;;;;;;22.00;14.93;;;8.00;99.90;;;;;;5064058;28;20204;-56
2023/10/21 00:46:31;;;;;;;23.67;15.87;;;8.20;99.90;;;;;;5063823;28;20192;-56
2023/10/21 00:48:57;;;;;;;26.73;16.10;;;8.30;99.90;;;;;;5047515;28;20229;-56
2023/10/21 00:51:24;;;;;;;21.60;16.17;;;8.20;99.90;;;;;;5073608;28;20205;-56
2023/10/21 00:53:50;;;;;;;20.77;14.60;;;8.20;99.90;;;;;;5065756;28;20242;-56
2023/10/21 00:56:15;;;;;;;19.33;15.30;;;8.20;99.90;;;;;;5050169;28;20190;-60
2023/10/21 00:58:41;;;;;;;20.90;15.63;;;8.20;99.90;;;;;;5066404;28;20182;-56
2023/10/21 01:01:08;;;;;;;23.43;16.73;;;8.20;99.90;;;;;;5064180;28;20474;-56
2023/10/21 01:03:34;;;;;;;24.60;16.40;;;8.20;99.90;;;;;;5068822;28;20190;-55
2023/10/21 01:05:59;;;;;;;25.47;17.23;;;8.30;99.90;;;;;;5072324;28;20201;-58
2023/10/21 01:08:25;;;;;;;25.27;17.60;;;8.40;99.90;;;;;;5077400;28;20213;-56
2023/10/21 01:10:51;;;;;;;22.73;15.83;;;8.10;99.90;;;;;;5071348;28;20212;-57
2023/10/21 01:13:17;;;;;;;23.70;17.90;;;8.10;99.90;;;;;;5071263;28;20232;-57
2023/10/21 01:15:43;;;;;;;25.40;17.63;;;8.20;99.90;;;;;;5080165;28;20240;-56
2023/10/21 01:18:08;;;;;;;24.93;18.33;;;8.20;99.90;;;;;;5075581;28;20203;-57
2023/10/21 01:20:35;;;;;;;22.60;17.00;;;8.20;99.90;;;;;;5075239;28;20224;-57
2023/10/21 01:23:01;;;;;;;27.10;18.03;;;8.20;99.90;;;;;;5081711;28;20243;-56
2023/10/21 01:25:27;;;;;;;25.67;17.67;;;8.20;99.90;;;;;;5074821;28;20201;-55
2023/10/21 01:27:55;;;;;;;26.10;19.37;;;8.20;99.90;;;;;;5067477;28;20233;-55
2023/10/21 01:30:21;;;;;;;26.90;17.67;;;8.20;99.90;;;;;;5075408;28;20243;-55
2023/10/21 01:32:48;;;;;;;25.33;17.30;;;8.40;99.90;;;;;;5075500;28;20209;-56
2023/10/21 01:35:14;;;;;;;23.80;17.40;;;8.40;99.90;;;;;;5067134;28;20277;-56
2023/10/21 01:37:40;;;;;;;26.50;18.47;;;8.50;99.90;;;;;;5071306;28;20197;-56
2023/10/21 01:40:06;;;;;;;28.20;18.37;;;8.20;99.90;;;;;;5075088;28;20251;-55
2023/10/21 01:42:34;;;;;;;25.40;19.07;;;8.30;99.90;;;;;;5075947;28;20209;-56
2023/10/21 01:44:59;;;;;;;26.50;18.73;;;8.10;99.90;;;;;;5069402;28;20194;-55
2023/10/21 01:47:26;;;;;;;30.53;18.47;;;8.20;99.90;;;;;;5074895;28;20258;-55
2023/10/21 01:49:52;;;;;;;31.33;19.30;;;8.20;99.90;;;;;;5074906;28;20208;-57
2023/10/21 01:52:17;;;;;;;26.67;17.03;;;8.40;99.90;;;;;;5070447;28;20202;-57
2023/10/21 01:54:44;;;;;;;28.43;19.40;;;8.40;99.90;;;;;;5070604;28;20198;-57
2023/10/21 01:57:09;;;;;;;29.47;19.27;;;8.40;99.90;;;;;;5056380;28;20205;-59
2023/10/21 01:59:41;;;;;;;27.17;18.43;;;8.40;99.90;;;;;;5072864;28;20282;-57
2023/10/21 02:02:07;;;;;;;26.07;18.50;;;8.50;99.90;;;;;;5056210;28;20209;-56
2023/10/21 02:04:33;;;;;;;27.63;19.20;;;8.50;99.90;;;;;;5076856;28;20197;-56
2023/10/21 02:06:58;;;;;;;33.50;21.43;;;8.50;99.90;;;;;;5074769;28;20204;-56
2023/10/21 02:09:24;;;;;;;27.83;19.27;;;8.30;99.90;;;;;;5071471;28;20314;-56
2023/10/21 02:11:49;;;;;;;29.10;21.30;;;8.10;99.90;;;;;;5051449;28;20336;-57
2023/10/21 02:14:15;;;;;;;33.43;18.63;;;8.50;99.90;;;;;;5073966;28;20272;-57
2023/10/21 02:16:40;;;;;;;30.90;19.60;;;8.60;99.90;;;;;;5050816;28;20363;-57
2023/10/21 02:19:06;;;;;;;27.83;20.00;;;8.50;99.90;;;;;;5075947;28;20204;-57
2023/10/21 02:21:31;;;;;;;28.20;18.53;;;8.50;99.90;;;;;;5074531;28;20221;-57
2023/10/21 02:23:57;;;;;;;27.70;18.40;;;8.50;99.90;;;;;;5073683;28;20244;-57
2023/10/21 02:26:22;;;;;;;32.03;19.97;;;8.60;99.90;;;;;;5074207;28;20320;-56
2023/10/21 02:28:48;;;;;;;27.83;19.43;;;8.40;99.90;;;;;;5070017;28;20229;-57
2023/10/21 02:31:13;;;;;;;27.93;18.73;;;8.40;99.90;;;;;;5074289;28;20827;-62
2023/10/21 02:33:40;;;;;;;26.83;19.67;;;8.20;99.90;;;;;;5074053;28;20220;-58
2023/10/21 02:36:05;;;;;;;27.50;20.03;;;8.40;99.90;;;;;;5075719;28;20257;-57
2023/10/21 02:38:31;;;;;;;31.70;20.27;;;8.40;99.90;;;;;;5074156;28;20280;-59
2023/10/21 02:40:56;;;;;;;30.43;19.73;;;8.60;99.90;;;;;;5072397;28;20205;-59
2023/10/21 02:43:22;;;;;;;28.03;19.10;;;8.60;99.90;;;;;;5063374;28;20197;-56
2023/10/21 02:45:48;;;;;;;27.37;19.20;;;8.50;99.90;;;;;;5069421;28;20694;-56
2023/10/21 02:48:14;;;;;;;27.97;20.67;;;8.70;99.90;;;;;;5071574;28;20244;-57
2023/10/21 02:50:39;;;;;;;29.13;20.30;;;8.90;99.90;;;;;;5070332;28;20928;-56
2023/10/21 02:53:05;;;;;;;28.33;18.73;;;8.90;99.90;;;;;;5055484;28;20202;-57
2023/10/21 02:55:30;;;;;;;28.67;18.70;;;8.90;99.90;;;;;;5056461;28;20550;-58
2023/10/21 02:57:56;;;;;;;25.37;18.47;;;9.00;99.90;;;;;;5074249;28;20276;-57
2023/10/21 03:00:22;;;;;;;29.67;19.90;;;9.10;99.90;;;;;;5072143;28;20653;-57
2023/10/21 03:02:48;;;;;;;29.47;19.67;;;9.00;99.90;;;;;;5071518;28;20189;-56
2023/10/21 03:05:17;;;;;;;29.00;18.87;;;9.10;99.90;;;;;;5071211;28;20197;-63
2023/10/21 03:07:43;;;;;;;27.67;19.10;;;9.00;99.90;;;;;;5073096;28;20208;-63
2023/10/21 03:10:12;;;;;;;29.80;18.37;;;9.10;99.90;;;;;;5051842;28;20287;-64
2023/10/21 03:12:37;;;;;;;28.67;19.67;;;9.00;99.90;;;;;;5069924;28;20254;-55
2023/10/21 03:15:06;;;;;;;25.73;19.37;;;9.00;99.90;;;;;;5070286;28;20201;-61
2023/10/21 03:17:32;;;;;;;26.60;19.30;;;8.80;99.90;;;;;;5073425;28;20637;-55
2023/10/21 03:19:58;;;;;;;32.93;20.17;;;8.90;99.90;;;;;;5072807;28;20294;-56
2023/10/21 03:22:25;;;;;;;28.27;19.23;;;8.80;99.90;;;;;;5046846;28;20225;-55
2023/10/21 03:24:51;;;;;;;29.13;19.60;;;8.90;99.90;;;;;;5048995;28;20756;-56
2023/10/21 03:27:16;;;;;;;28.33;20.27;;;9.00;99.90;;;;;;5072600;28;20672;-56
2023/10/21 03:29:42;;;;;;;25.80;19.40;;;9.00;99.90;;;;;;5072250;28;20571;-58
2023/10/21 03:32:09;;;;;;;25.97;18.43;;;8.90;99.90;;;;;;5072405;28;20212;-58
2023/10/21 03:34:35;;;;;;;31.23;19.07;;;8.80;99.90;;;;;;5072783;28;20194;-58
2023/10/21 03:37:01;;;;;;;30.90;20.13;;;8.90;99.90;;;;;;5050346;28;20197;-60
2023/10/21 03:39:27;;;;;;;32.33;18.70;;;8.70;99.90;;;;;;5072764;28;20200;-56
2023/10/21 03:41:55;;;;;;;27.27;19.17;;;8.80;99.90;;;;;;5072327;28;20186;-56
2023/10/21 03:44:21;;;;;;;28.53;18.00;;;8.80;99.90;;;;;;5066130;28;20318;-57
2023/10/21 03:46:46;;;;;;;30.03;18.67;;;8.50;99.90;;;;;;5053067;28;20558;-55
2023/10/21 03:49:12;;;;;;;33.27;19.07;;;8.60;99.90;;;;;;5073181;28;20224;-57
2023/10/21 03:51:37;;;;;;;30.37;19.37;;;8.70;99.90;;;;;;5054250;28;20208;-56
2023/10/21 03:54:03;;;;;;;32.97;19.70;;;8.80;99.90;;;;;;5072603;28;20201;-57
2023/10/21 03:56:28;;;;;;;36.47;20.83;;;8.90;99.90;;;;;;5073779;28;20193;-57
2023/10/21 03:58:54;;;;;;;27.40;19.00;;;8.80;99.90;;;;;;5074373;28;20214;-57
2023/10/21 04:01:22;;;;;;;28.87;19.20;;;8.80;99.90;;;;;;5065985;28;20610;-57
2023/10/21 04:03:48;;;;;;;36.83;18.70;;;8.60;99.90;;;;;;5066547;28;20802;-57
2023/10/21 04:06:15;;;;;;;38.47;20.97;;;8.80;99.90;;;;;;5068139;28;20211;-57
2023/10/21 04:08:41;;;;;;;26.93;18.83;;;8.50;99.90;;;;;;5066357;28;20734;-57
2023/10/21 04:11:08;;;;;;;36.27;18.10;;;8.60;99.90;;;;;;5072869;28;20707;-57
2023/10/21 04:13:34;;;;;;;25.63;17.37;;;8.70;99.90;;;;;;5072660;28;20671;-57
2023/10/21 04:15:59;;;;;;;31.57;17.97;;;8.80;99.90;;;;;;5072389;28;20194;-57
2023/10/21 04:18:25;;;;;;;33.13;19.23;;;8.60;99.90;;;;;;5073752;28;20585;-56
2023/10/21 04:20:51;;;;;;;32.27;18.60;;;8.60;99.90;;;;;;5071986;28;20276;-56
2023/10/21 04:23:16;;;;;;;32.37;19.60;;;8.60;99.90;;;;;;5071645;28;20208;-56
2023/10/21 04:25:43;;;;;;;32.67;19.23;;;8.50;99.90;;;;;;5072467;28;20193;-56
2023/10/21 04:28:09;;;;;;;26.93;20.23;;;8.60;99.90;;;;;;5068681;28;20289;-57
2023/10/21 04:30:35;;;;;;;32.63;19.20;;;8.70;99.90;;;;;;5073608;28;20239;-56
2023/10/21 04:33:01;;;;;;;31.13;19.00;;;8.80;99.90;;;;;;5073717;28;20270;-56
2023/10/21 04:35:26;;;;;;;35.07;20.10;;;8.70;99.90;;;;;;5071750;28;20225;-56
2023/10/21 04:37:52;;;;;;;30.10;19.40;;;8.80;99.90;;;;;;5071370;28;20769;-56
2023/10/21 04:40:17;;;;;;;26.07;19.47;;;8.80;99.90;;;;;;5071439;28;20190;-56
2023/10/21 04:42:43;;;;;;;29.83;19.57;;;8.80;99.90;;;;;;5053121;28;20607;-56
2023/10/21 04:45:09;;;;;;;31.00;18.10;;;8.80;99.90;;;;;;5050723;28;20205;-56
2023/10/21 04:47:35;;;;;;;31.93;19.40;;;8.70;99.90;;;;;;5044533;28;20202;-56
2023/10/21 04:50:01;;;;;;;31.80;19.03;;;8.80;99.90;;;;;;5071584;28;20262;-57
2023/10/21 04:52:26;;;;;;;28.70;18.03;;;8.70;99.90;;;;;;5070164;28;20699;-56
2023/10/21 04:54:52;;;;;;;29.80;18.67;;;8.60;99.90;;;;;;5070968;28;20225;-56
2023/10/21 04:57:18;;;;;;;30.77;18.87;;;8.50;99.90;;;;;;5075420;28;20271;-56
2023/10/21 04:59:44;;;;;;;28.70;19.10;;;8.60;99.90;;;;;;5071544;28;20191;-56
2023/10/21 05:02:10;;;;;;;37.73;19.53;;;8.50;99.90;;;;;;5075783;28;20243;-56
2023/10/21 05:04:35;;;;;;;36.40;19.13;;;8.50;99.90;;;;;;5054206;28;20189;-56
2023/10/21 05:07:02;;;;;;;33.10;19.93;;;8.60;99.90;;;;;;5065193;28;20224;-56
2023/10/21 05:09:28;;;;;;;31.93;19.27;;;8.50;99.90;;;;;;5067296;28;20209;-57
2023/10/21 05:11:54;;;;;;;28.70;18.70;;;8.40;99.90;;;;;;5067585;28;20426;-57
2023/10/21 05:14:19;;;;;;;29.57;19.03;;;8.60;99.90;;;;;;5070548;28;20227;-56
2023/10/21 05:16:46;;;;;;;29.40;18.47;;;8.40;99.90;;;;;;5068613;28;20201;-57
2023/10/21 05:19:11;;;;;;;29.33;19.77;;;8.50;99.90;;;;;;5072938;28;20528;-56
2023/10/21 05:21:37;;;;;;;34.63;20.53;;;8.50;99.90;;;;;;5071147;28;20816;-56
2023/10/21 05:24:03;;;;;;;31.17;20.53;;;8.40;99.90;;;;;;5070896;28;20193;-57
2023/10/21 05:26:29;;;;;;;29.70;18.37;;;8.30;99.90;;;;;;5075883;28;20217;-56
2023/10/21 05:28:55;;;;;;;27.97;19.73;;;8.50;99.90;;;;;;5052638;28;20244;-66
2023/10/21 05:31:21;;;;;;;32.27;20.77;;;8.70;99.90;;;;;;5071371;28;20650;-73
2023/10/21 05:33:46;;;;;;;30.27;19.43;;;8.70;99.90;;;;;;5072628;28;20200;-61
2023/10/21 05:36:12;;;;;;;29.97;20.53;;;8.60;99.90;;;;;;5049696;28;20205;-56
2023/10/21 05:38:38;;;;;;;26.33;18.70;;;8.50;99.90;;;;;;5072769;28;20568;-60
2023/10/21 05:41:03;;;;;;;30.47;20.50;;;8.60;99.90;;;;;;5071189;28;20205;-57
2023/10/21 05:43:29;;;;;;;27.13;18.53;;;8.60;99.90;;;;;;5053408;28;20296;-57
2023/10/21 05:45:54;;;;;;;26.47;18.87;;;8.60;99.90;;;;;;5072908;28;20911;-56
2023/10/21 05:48:20;;;;;;;34.87;20.23;;;8.50;99.90;;;;;;5073487;28;20244;-56
2023/10/21 05:50:47;;;;;;;32.83;20.60;;;8.60;99.90;;;;;;5071830;28;20251;-57
2023/10/21 05:53:12;;;;;;;24.97;19.17;;;8.70;99.90;;;;;;5074391;28;20205;-57
2023/10/21 05:55:42;;;;;;;27.40;19.33;;;8.80;99.90;;;;;;5075044;28;20194;-57
2023/10/21 05:58:09;;;;;;;31.17;19.87;;;8.90;99.90;;;;;;5075053;28;20205;-58
2023/10/21 06:00:35;;;;;;;36.93;20.23;;;8.80;99.90;;;;;;5056456;28;20288;-57
2023/10/21 06:03:01;;;;;;;29.27;19.33;;;8.90;99.90;;;;;;5078018;28;20242;-57
2023/10/21 06:05:27;;;;;;;30.70;19.53;;;8.80;99.90;;;;;;5076644;28;20209;-58
2023/10/21 06:07:53;;;;;;;28.30;19.23;;;8.80;99.90;;;;;;5074177;28;20701;-58
2023/10/21 06:10:20;;;;;;;34.87;18.80;;;8.80;99.90;;;;;;5074277;28;20730;-58
2023/10/21 06:12:46;;;;;;;29.07;19.27;;;8.80;99.90;;;;;;5074145;28;20675;-58
2023/10/21 06:15:11;;;;;;;27.40;19.07;;;8.60;99.90;;;;;;5056199;28;20208;-58
2023/10/21 06:17:37;;;;;;;27.63;18.43;;;8.60;99.90;;;;;;5073816;28;20181;-57
2023/10/21 06:20:03;;;;;;;26.50;17.20;;;8.40;99.90;;;;;;5079175;28;20297;-58
2023/10/21 06:22:29;;;;;;;22.87;17.70;;;8.40;99.90;;;;;;5074845;28;20962;-58
2023/10/21 06:24:55;;;;;;;24.87;18.53;;;8.50;99.90;;;;;;5052090;28;20520;-58
2023/10/21 06:27:21;;;;;;;26.87;18.60;;;8.60;99.90;;;;;;5055926;28;20208;-57
2023/10/21 06:29:47;;;;;;;25.70;18.73;;;8.80;99.90;;;;;;5074449;28;20232;-58
2023/10/21 06:32:13;;;;;;;27.33;17.93;;;8.90;99.90;;;;;;5073129;28;20470;-58
2023/10/21 06:34:38;;;;;;;29.30;19.47;;;9.00;99.90;;;;;;5072964;28;20239;-58
2023/10/21 06:37:04;;;;;;;30.27;19.73;;;9.10;99.90;;;;;;5055916;28;20190;-59
2023/10/21 06:39:29;;;;;;;25.70;20.70;;;9.00;99.90;;;;;;5069830;28;20510;-58
2023/10/21 06:41:55;;;;;;;33.70;17.90;;;8.90;99.90;;;;;;5051538;28;20247;-58
2023/10/21 06:44:20;;;;;;;27.37;16.87;;;8.90;99.90;;;;;;5070035;28;20671;-57
2023/10/21 06:46:46;;;;;;;26.67;17.63;;;8.90;99.90;;;;;;5074250;28;20255;-58
2023/10/21 06:49:12;;;;;;;24.67;18.17;;;9.00;99.90;;;;;;5076246;28;20220;-58
2023/10/21 06:51:38;;;;;;;27.90;16.00;;;9.10;99.90;;;;;;5068185;28;20236;-60
2023/10/21 06:54:05;;;;;;;30.23;17.30;;;8.70;99.90;;;;;;5075075;28;20201;-58
2023/10/21 06:56:31;;;;;;;22.10;16.57;;;8.80;99.90;;;;;;5069650;28;20205;-62
2023/10/21 06:58:57;;;;;;;24.93;16.63;;;8.90;99.90;;;;;;5073414;28;20194;-60
2023/10/21 07:01:22;;;;;;;26.80;16.57;;;9.00;99.90;;;;;;5072532;28;20284;-60
2023/10/21 07:03:49;;;;;;;24.97;17.23;;;9.20;99.90;;;;;;5074838;28;20189;-62
2023/10/21 07:06:16;;;;;;;29.87;19.20;;;9.10;99.90;;;;;;5050551;28;20226;-56
2023/10/21 07:08:42;;;;;;;30.87;18.63;;;9.20;99.90;;;;;;5053415;28;20525;-58
2023/10/21 07:11:07;;;;;;;20.43;17.40;;;9.30;99.90;;;;;;5073099;28;20756;-57
2023/10/21 07:13:33;;;;;;;21.93;17.13;;;9.40;99.90;;;;;;5068810;28;20320;-59
2023/10/21 07:16:10;;;;;;;21.03;17.00;;;9.20;99.90;;;;;;5068070;28;20785;-57
2023/10/21 07:18:36;;;;;;;21.17;16.90;;;9.30;99.90;;;;;;5072601;28;20258;-56
2023/10/21 07:21:02;;;;;;;22.10;15.73;;;9.30;99.90;;;;;;5052320;28;20237;-57
2023/10/21 07:23:28;;;;;;;24.47;17.40;;;9.00;99.90;;;;;;5071637;28;20583;-56
2023/10/21 07:25:54;;;;;;;23.67;17.60;;;9.20;99.90;;;;;;5073318;28;20258;-57
2023/10/21 07:28:19;;;;;;;20.60;17.53;;;9.40;99.90;;;;;;5073037;28;20954;-58
2023/10/21 07:30:45;;;;;;;23.60;18.27;;;9.50;99.90;;;;;;5075222;28;20597;-58
2023/10/21 07:33:10;;;;;;;23.53;17.87;;;9.50;99.90;;;;;;5073337;28;20675;-56
2023/10/21 07:35:35;;;;;;;23.63;17.37;;;9.40;99.90;;;;;;5072943;28;20185;-56
2023/10/21 07:38:01;;;;;;;23.63;18.53;;;9.50;99.90;;;;;;5069304;28;20205;-57
2023/10/21 07:40:29;;;;;;;23.57;16.50;;;9.50;99.90;;;;;;5068909;28;20703;-57
2023/10/21 07:42:55;;;;;;;25.17;17.70;;;9.50;99.90;;;;;;5072729;28;20707;-57
2023/10/21 07:45:21;;;;;;;23.80;17.07;;;9.60;99.90;;;;;;5051750;28;20201;-57
2023/10/21 07:47:47;;;;;;;22.40;16.83;;;9.60;99.90;;;;;;5051777;28;20193;-57
2023/10/21 07:50:13;;;;;;;21.30;16.50;;;9.60;99.90;;;;;;5073009;28;20279;-57
2023/10/21 07:52:39;;;;;;;19.37;16.20;;;9.70;99.90;;;;;;5074043;28;20937;-57
2023/10/21 07:55:05;;;;;;;19.77;16.13;;;10.00;99.90;;;;;;5075854;28;20293;-57
2023/10/21 07:57:31;;;;;;;20.33;15.20;;;10.10;99.90;;;;;;5077126;28;20233;-56
2023/10/21 07:59:58;;;;;;;22.83;16.97;;;10.10;99.90;;;;;;5081816;28;20277;-57
2023/10/21 08:02:24;;;;;;;21.07;16.87;;;10.00;99.90;;;;;;5066225;28;20196;-57
2023/10/21 08:04:49;;;;;;;19.40;16.77;;;9.90;99.90;;;;;;5082814;28;20193;-58
2023/10/21 08:07:15;;;;;;;23.00;17.63;;;10.00;99.90;;;;;;5061937;28;20297;-57
2023/10/21 08:09:41;;;;;;;18.90;15.97;;;10.10;99.90;;;;;;5082311;28;21035;-58
2023/10/21 08:12:08;;;;;;;21.13;17.20;;;10.10;99.90;;;;;;5081684;28;20300;-66
2023/10/21 08:14:36;;;;;;;17.17;14.43;;;10.40;99.90;;;;;;5070401;28;20206;-58
2023/10/21 08:17:05;;;;;;;20.50;16.23;;;10.40;99.90;;;;;;5070146;28;20662;-62
2023/10/21 08:19:31;;;;;;;18.37;14.97;;;10.60;99.90;;;;;;5065877;28;20194;-62
2023/10/21 08:21:59;;;;;;;20.93;15.20;;;10.70;99.90;;;;;;5069575;28;20848;-60
2023/10/21 08:24:25;;;;;;;15.63;13.70;;;10.80;99.90;;;;;;5070651;28;20195;-60
2023/10/21 08:26:50;;;;;;;17.37;14.43;;;10.60;99.90;;;;;;5074294;28;20244;-63
2023/10/21 08:29:16;;;;;;;15.30;13.57;;;10.50;99.90;;;;;;5071477;28;20592;-63
2023/10/21 08:31:42;;;;;;;17.03;15.23;;;10.70;99.90;;;;;;5071606;28;20805;-57
2023/10/21 08:34:12;;;;;;;16.57;14.33;;;10.90;99.90;;;;;;5072725;28;20205;-60
2023/10/21 08:36:38;;;;;;;16.27;13.53;;;10.90;99.90;;;;;;5071838;28;20205;-60
2023/10/21 08:39:07;;;;;;;18.13;14.40;;;11.00;99.90;;;;;;5071845;28;20206;-60
2023/10/21 08:41:36;;;;;;;14.87;13.30;;;11.00;99.90;;;;;;5053243;28;20277;-60
2023/10/21 08:44:02;;;;;;;16.90;13.43;;;10.90;99.90;;;;;;5068142;28;20721;-57
2023/10/21 08:46:30;;;;;;;16.33;13.73;;;11.00;99.90;;;;;;5053847;28;20309;-57
2023/10/21 08:48:56;;;;;;;15.13;13.20;;;10.90;99.90;;;;;;5072643;28;20304;-59
2023/10/21 08:51:21;;;;;;;16.57;14.87;;;11.00;99.90;;;;;;5069821;28;20373;-58
2023/10/21 08:53:52;;;;;;;15.97;14.30;;;11.30;99.90;;;;;;5069565;28;20274;-58
2023/10/21 08:56:17;;;;;;;16.60;14.40;;;11.30;99.90;;;;;;5070827;28;20206;-62
2023/10/21 08:58:43;;;;;;;17.23;13.67;;;11.50;99.90;;;;;;5070168;28;20192;-57
2023/10/21 09:01:10;;;;;;;15.30;13.03;;;11.60;99.90;;;;;;5072156;28;20304;-61
2023/10/21 09:03:36;;;;;;;15.40;12.93;;;11.60;99.90;;;;;;5068366;28;20247;-62
2023/10/21 09:06:06;;;;;;;15.57;13.40;;;11.70;99.90;;;;;;5071332;28;20205;-63
2023/10/21 09:08:34;;;;;;;15.07;13.50;;;11.80;99.90;;;;;;5053600;28;20222;-62
2023/10/21 09:11:00;;;;;;;14.27;12.77;;;11.80;99.90;;;;;;5070962;28;20193;-63
2023/10/21 09:13:31;;;;;;;14.37;11.83;;;11.90;99.90;;;;;;5070840;28;20263;-63
2023/10/21 09:15:57;;;;;;;13.00;11.73;;;12.10;99.90;;;;;;5071731;28;20203;-61
2023/10/21 09:18:23;;;;;;;12.40;11.10;;;12.10;99.90;;;;;;5052493;28;20202;-59
2023/10/21 09:20:52;;;;;;;13.20;11.40;;;12.20;99.90;;;;;;5071180;28;20228;-59
2023/10/21 09:23:17;;;;;;;13.67;12.27;;;12.20;99.90;;;;;;5068448;28;20233;-58
2023/10/21 09:25:53;;;;;;;12.33;11.10;;;12.20;99.90;;;;;;5066407;28;20190;-60
2023/10/21 09:28:24;;;;;;;19.97;16.17;;;12.50;99.90;;;;;;5074941;28;20687;-59
2023/10/21 09:30:57;;;;;;;12.17;10.43;;;12.50;99.90;;;;;;5052535;28;20217;-59
2023/10/21 09:33:24;;;;;;;12.43;11.13;;;13.00;99.90;;;;;;5074664;28;20260;-60
2023/10/21 09:36:07;;;;;;;11.30;10.27;;;13.00;99.90;;;;;;5056493;28;20577;-59
2023/10/21 09:38:37;;;;;;;11.13;10.03;;;14.00;99.90;;;;;;5073274;28;20654;-60
2023/10/21 09:41:09;;;;;;;10.73;9.50;;;14.10;99.90;;;;;;5075743;28;20197;-61
2023/10/21 09:43:41;;;;;;;10.93;9.90;;;13.70;99.90;;;;;;5071200;28;20211;-61
2023/10/21 09:46:12;;;;;;;9.90;8.70;;;14.20;99.90;;;;;;5053519;28;20193;-66
2023/10/21 09:48:45;;;;;;;9.73;8.50;;;14.60;99.90;;;;;;5072521;28;20217;-60
2023/10/21 09:51:13;;;;;;;9.67;8.73;;;14.30;99.90;;;;;;5050879;28;20202;-59
2023/10/21 09:53:42;;;;;;;9.40;8.60;;;14.20;99.90;;;;;;5070330;28;20290;-59
2023/10/21 09:56:11;;;;;;;10.30;9.30;;;13.90;99.90;;;;;;5053228;28;20204;-60
2023/10/21 09:58:40;;;;;;;9.23;8.40;;;14.00;99.90;;;;;;5073477;28;20668;-59
2023/10/21 10:01:07;;;;;;;12.90;8.87;;;13.90;99.90;;;;;;5073959;28;20193;-58
2023/10/21 10:03:36;;;;;;;9.03;8.13;;;14.40;99.90;;;;;;5074599;28;20203;-60
2023/10/21 10:06:04;;;;;;;8.07;7.27;;;15.30;99.90;;;;;;5076310;28;21016;-59
2023/10/21 10:08:33;;;;;;;8.47;7.67;;;15.20;99.90;;;;;;5067459;28;20221;-57
2023/10/21 10:11:07;;;;;;;9.10;8.30;;;14.90;99.90;;;;;;5053931;28;20652;-58
2023/10/21 10:13:36;;;;;;;12.20;8.40;;;14.90;99.90;;;;;;5068678;28;20203;-63
2023/10/21 10:16:22;;;;;;;9.37;8.43;;;14.90;99.90;;;;;;5073367;28;20271;-57
2023/10/21 10:18:55;;;;;;;7.20;6.50;;;15.00;99.90;;;;;;5051563;28;20254;-64
2023/10/21 10:21:21;;;;;;;11.50;6.63;;;15.50;99.90;;;;;;5069169;28;20251;-66
2023/10/21 10:23:51;;;;;;;8.33;7.37;;;16.00;99.90;;;;;;5054381;28;20197;-59
2023/10/21 10:26:37;;;;;;;7.03;6.40;;;16.10;99.90;;;;;;5052480;28;20198;-60
2023/10/21 10:29:26;;;;;;;6.73;6.03;;;15.80;99.90;;;;;;5072864;28;20229;-59
2023/10/21 10:32:14;;;;;;;7.60;6.27;;;15.70;99.90;;;;;;5069625;28;20212;-60
2023/10/21 10:34:53;;;;;;;7.07;6.47;;;15.60;99.90;;;;;;5050336;28;20288;-64
2023/10/21 10:37:35;;;;;;;6.60;6.00;;;15.40;99.90;;;;;;5050480;28;20201;-61
2023/10/21 10:40:15;;;;;;;6.63;5.97;;;15.60;99.90;;;;;;5071856;28;20212;-58
2023/10/21 10:42:41;;;;;;;6.37;5.77;;;15.80;99.90;;;;;;5071920;28;20235;-58
2023/10/21 10:45:07;;;;;;;6.13;5.53;;;16.00;99.90;;;;;;5069139;28;20216;-67
2023/10/21 10:47:32;;;;;;;5.77;4.90;;;15.90;99.90;;;;;;5052207;28;20201;-60
2023/10/21 10:50:01;;;;;;;5.40;4.90;;;16.00;99.90;;;;;;5072061;28;20220;-61
2023/10/21 10:52:35;;;;;;;5.27;4.87;;;16.70;99.90;;;;;;5049495;28;20213;-59
2023/10/21 10:55:03;;;;;;;5.63;4.37;;;16.60;99.90;;;;;;5052345;28;20206;-63
2023/10/21 10:57:29;;;;;;;3.80;3.43;;;16.80;99.90;;;;;;5071944;28;20675;-58
2023/10/21 10:59:55;;;;;;;2.83;2.63;;;17.10;99.90;;;;;;5053914;28;20190;-57
2023/10/21 11:02:23;;;;;;;3.53;2.00;;;17.30;99.90;;;;;;5051023;28;20608;-59
2023/10/21 11:04:49;;;;;;;2.37;2.17;;;17.50;99.90;;;;;;5071036;28;20272;-58
2023/10/21 11:07:16;;;;;;;3.13;1.33;;;17.60;99.90;;;;;;5071087;28;20671;-58
2023/10/21 11:09:42;;;;;;;4.57;1.63;;;17.80;99.90;;;;;;5071932;28;20621;-58
2023/10/21 11:12:07;;;;;;;1.27;1.17;;;18.00;99.90;;;;;;5070658;28;20232;-58
2023/10/21 11:14:33;;;;;;;1.90;1.20;;;18.00;99.90;;;;;;5071210;28;20254;-59
2023/10/21 11:17:00;;;;;;;1.70;1.60;;;18.00;99.90;;;;;;5069776;28;20197;-57
2023/10/21 11:19:25;;;;;;;3.60;1.10;;;17.80;99.90;;;;;;5072086;28;20205;-64
2023/10/21 11:21:51;;;;;;;2.53;1.03;;;17.60;99.90;;;;;;5074268;28;20237;-65
2023/10/21 11:24:19;;;;;;;3.03;0.90;;;17.60;99.90;;;;;;5053010;28;20193;-59
2023/10/21 11:26:45;;;;;;;2.77;0.90;;;17.70;99.90;;;;;;5072003;28;20194;-60
2023/10/21 11:29:10;;;;;;;1.50;1.00;;;17.50;99.90;;;;;;5052627;28;20221;-58
2023/10/21 11:31:36;;;;;;;0.80;0.80;;;17.40;99.90;;;;;;5068897;28;20209;-57
2023/10/21 11:34:12;;;;;;;0.80;0.80;;;17.30;99.90;;;;;;5066072;28;20205;-58
2023/10/21 11:36:40;;;;;;;1.40;0.77;;;17.20;99.90;;;;;;5052361;28;20914;-58
2023/10/21 11:39:25;;;;;;;0.57;0.57;;;17.20;99.90;;;;;;5068282;28;20201;-65
2023/10/21 11:41:55;;;;;;;0.60;0.60;;;17.20;99.90;;;;;;5073483;28;20577;-58
2023/10/21 11:44:27;;;;;;;0.47;0.47;;;17.20;99.90;;;;;;5064383;28;20273;-64
2023/10/21 11:47:04;;;;;;;0.93;0.90;;;17.30;99.90;;;;;;5070358;28;20244;-59
2023/10/21 11:49:33;;;;;;;0.47;0.43;;;17.20;99.90;;;;;;5051703;28;20240;-67
2023/10/21 11:52:00;;;;;;;1.00;0.73;;;17.30;99.90;;;;;;5077075;28;20616;-60
2023/10/21 11:54:39;;;;;;;1.57;0.53;;;17.30;99.90;;;;;;5069345;28;20193;-60
2023/10/21 12:05:19;;;;;;;0.70;0.57;;;17.70;99.90;;;;;;5067458;28;20194;-71
2023/10/21 12:16:30;;;;;;;0.50;0.50;;;18.20;99.90;;;;;;5072347;28;20390;-65
2023/10/21 12:24:58;;;;;;;0.63;0.50;;;19.50;99.90;;;;;;5072230;28;20622;-59
2023/10/21 12:40:33;;;;;;;0.83;0.60;;;19.70;99.90;;;;;;5066623;28;20198;-59
2023/10/21 12:45:46;;;;;;;0.50;0.50;;;19.90;99.90;;;;;;5068804;28;20302;-60
2023/10/21 12:48:19;;;;;;;0.43;0.40;;;20.40;99.90;;;;;;5072304;28;20215;-61
2023/10/21 12:50:45;;;;;;;0.50;0.50;;;20.50;99.90;;;;;;5067823;28;20200;-61
2023/10/21 12:53:12;;;;;;;0.90;0.80;;;20.00;99.90;;;;;;5070264;28;20358;-62
2023/10/21 12:55:37;;;;;;;1.30;0.57;;;19.70;99.90;;;;;;5097539;22;20199;-60
2023/10/21 12:58:04;;;;;;;0.60;0.50;;;19.50;99.90;;;;;;5049009;28;20216;-61
2023/10/21 13:00:31;;;;;;;1.50;0.57;;;19.00;99.90;;;;;;5048721;28;20325;-60
2023/10/21 13:02:56;;;;;;;0.97;0.40;;;19.00;99.90;;;;;;5054565;28;20204;-60
2023/10/21 13:05:22;;;;;;;0.83;0.53;;;18.90;99.90;;;;;;5053838;28;20253;-61
2023/10/21 13:07:47;;;;;;;1.03;0.50;;;19.30;99.90;;;;;;5057336;28;20202;-61
2023/10/21 13:10:13;;;;;;;1.23;0.50;;;19.30;99.90;;;;;;5051343;28;20299;-61
2023/10/21 13:12:40;;;;;;;0.40;0.40;;;19.40;99.90;;;;;;5055658;28;20666;-61
2023/10/21 13:15:12;;;;;;;0.63;0.63;;;19.70;99.90;;;;;;5051028;28;20202;-60